Time;durP1;ratioP1;P1;durP2;ratioP2;P2;SDS_P1;SDS_P2;PMS_P1;PMS_P2;Temp;Humidity;BMP_temperature;BMP_pressure;BME280_temperature;BME280_humidity;BME280_pressure;Samples;Min_cycle;Max_cycle;Signal;HPM_P1;HPM_P2
2022/05/25 00:02:23;;;;;;;0.98;0.98;;;16.90;99.90;;;;;;5123783;28;20202;-62
2022/05/25 00:04:50;;;;;;;1.05;0.95;;;16.90;99.90;;;;;;5132773;28;20174;-63
2022/05/25 00:07:16;;;;;;;1.10;1.00;;;16.80;99.90;;;;;;5117928;28;20712;-63
2022/05/25 00:09:42;;;;;;;1.30;1.10;;;16.80;99.90;;;;;;5116221;28;20543;-62
2022/05/25 00:12:09;;;;;;;1.08;0.98;;;16.80;99.90;;;;;;5116605;28;20166;-63
2022/05/25 00:14:36;;;;;;;3.53;1.60;;;16.70;99.90;;;;;;5115364;28;20577;-62
2022/05/25 00:17:03;;;;;;;1.00;1.00;;;16.70;99.90;;;;;;5116075;28;20254;-63
2022/05/25 00:22:13;;;;;;;2.22;1.30;;;16.50;99.90;;;;;;5115285;28;20286;-63
2022/05/25 00:24:38;;;;;;;1.30;1.20;;;16.60;99.90;;;;;;5115760;28;20194;-63
2022/05/25 00:27:04;;;;;;;3.00;1.20;;;16.50;99.90;;;;;;5115717;28;20166;-64
2022/05/25 00:29:30;;;;;;;2.72;1.83;;;16.40;99.90;;;;;;5115527;28;20159;-63
2022/05/25 00:31:56;;;;;;;1.90;1.77;;;16.20;99.90;;;;;;5120746;28;20225;-64
2022/05/25 00:34:22;;;;;;;1.90;1.70;;;15.80;99.90;;;;;;5124487;28;20635;-64
2022/05/25 00:36:47;;;;;;;2.20;1.45;;;15.90;99.90;;;;;;5125488;28;20154;-65
2022/05/25 00:39:13;;;;;;;2.13;1.75;;;15.80;99.90;;;;;;5127471;28;20639;-63
2022/05/25 00:41:39;;;;;;;1.60;1.50;;;15.70;99.90;;;;;;5097575;28;20170;-64
2022/05/25 00:44:05;;;;;;;2.85;1.60;;;15.70;99.90;;;;;;5114709;28;20174;-66
2022/05/25 00:46:34;;;;;;;2.05;1.45;;;15.70;99.90;;;;;;5115063;28;20177;-63
2022/05/25 00:49:10;;;;;;;2.85;1.30;;;15.80;99.90;;;;;;5117775;28;20165;-63
2022/05/25 00:51:41;;;;;;;1.60;1.50;;;15.80;99.90;;;;;;5122302;28;20210;-63
2022/05/25 00:54:29;;;;;;;2.13;1.60;;;15.90;99.90;;;;;;5128100;28;20241;-65
2022/05/25 00:56:58;;;;;;;2.23;1.70;;;15.70;99.90;;;;;;5126178;28;20186;-63
2022/05/25 00:59:33;;;;;;;1.70;1.40;;;15.80;99.90;;;;;;5134748;28;20184;-63
2022/05/25 01:01:59;;;;;;;1.80;1.33;;;15.80;99.90;;;;;;5117783;28;20661;-63
2022/05/25 01:04:26;;;;;;;8.67;1.33;;;15.80;99.90;;;;;;5115026;28;20263;-62
2022/05/25 01:07:04;;;;;;;1.90;1.57;;;15.80;99.90;;;;;;5114776;28;20222;-63
2022/05/25 01:09:47;;;;;;;2.63;1.70;;;15.70;99.90;;;;;;5114522;28;20170;-63
2022/05/25 01:12:34;;;;;;;1.40;1.30;;;15.60;99.90;;;;;;5114580;28;20261;-62
2022/05/25 01:15:06;;;;;;;1.63;1.40;;;15.60;99.90;;;;;;5114503;28;20579;-61
2022/05/25 01:17:43;;;;;;;1.67;1.37;;;15.40;99.90;;;;;;5113975;28;20155;-63
2022/05/25 01:20:12;;;;;;;1.67;1.47;;;15.30;99.90;;;;;;5114725;28;20169;-64
2022/05/25 01:22:56;;;;;;;3.07;1.73;;;15.40;99.90;;;;;;5114433;28;20259;-62
2022/05/25 01:25:40;;;;;;;1.90;1.50;;;15.50;99.90;;;;;;5114139;28;20237;-63
2022/05/25 01:28:34;;;;;;;3.07;1.33;;;15.40;99.90;;;;;;5114939;28;20157;-63
2022/05/25 01:31:05;;;;;;;2.00;1.50;;;15.40;99.90;;;;;;5114520;28;20170;-64
2022/05/25 01:33:41;;;;;;;1.67;1.50;;;15.40;99.90;;;;;;5114293;28;20194;-63
2022/05/25 01:36:18;;;;;;;1.70;1.40;;;15.30;99.90;;;;;;5114147;28;20158;-63
2022/05/25 01:39:07;;;;;;;1.63;1.50;;;15.20;99.90;;;;;;5113996;28;20154;-62
2022/05/25 01:41:42;;;;;;;3.57;1.47;;;15.00;99.90;;;;;;5114226;28;20166;-63
2022/05/25 01:44:21;;;;;;;2.73;1.30;;;15.00;99.90;;;;;;5114256;28;20162;-62
2022/05/25 01:47:03;;;;;;;2.23;1.60;;;15.00;99.90;;;;;;5096396;28;20512;-63
2022/05/25 01:49:39;;;;;;;2.30;1.40;;;14.90;99.90;;;;;;5114178;28;20250;-64
2022/05/25 01:52:08;;;;;;;2.10;1.37;;;15.00;99.90;;;;;;5114331;28;20154;-63
2022/05/25 01:54:38;;;;;;;2.10;1.30;;;15.00;99.90;;;;;;5114303;28;20158;-62
2022/05/25 01:57:13;;;;;;;1.37;1.20;;;15.00;99.90;;;;;;5114179;28;20185;-63
2022/05/25 01:59:41;;;;;;;1.50;1.40;;;15.10;99.90;;;;;;5114127;28;20203;-63
2022/05/25 02:04:56;;;;;;;1.50;1.20;;;15.00;99.90;;;;;;5109659;28;20274;-63
2022/05/25 02:07:35;;;;;;;3.37;1.70;;;15.00;99.90;;;;;;5125988;28;20232;-63
2022/05/25 02:10:25;;;;;;;2.70;1.67;;;14.90;99.90;;;;;;5134757;28;20476;-63
2022/05/25 02:13:03;;;;;;;4.73;1.40;;;14.90;99.90;;;;;;5134823;28;20170;-63
2022/05/25 02:15:47;;;;;;;1.47;1.23;;;14.90;99.90;;;;;;5134545;28;20178;-63
2022/05/25 02:18:36;;;;;;;1.37;1.20;;;14.90;99.90;;;;;;5134196;28;20194;-63
2022/05/25 02:21:11;;;;;;;1.37;1.27;;;14.90;99.90;;;;;;5134193;28;20161;-62
2022/05/25 02:23:54;;;;;;;2.10;1.50;;;14.90;99.90;;;;;;5134086;28;20244;-63
2022/05/25 02:26:41;;;;;;;1.90;1.27;;;14.80;99.90;;;;;;5134718;28;20199;-63
2022/05/25 02:29:17;;;;;;;1.40;1.30;;;14.90;99.90;;;;;;5122667;27;20165;-64
2022/05/25 02:32:09;;;;;;;2.07;1.43;;;14.80;99.90;;;;;;5153465;27;20316;-67
2022/05/25 02:34:37;;;;;;;2.50;1.53;;;14.80;99.90;;;;;;5153364;27;20173;-63
2022/05/25 02:37:04;;;;;;;2.77;1.80;;;14.80;99.90;;;;;;5152453;27;20184;-63
2022/05/25 02:39:30;;;;;;;1.93;1.50;;;14.80;99.90;;;;;;5145955;27;20157;-63
2022/05/25 02:41:56;;;;;;;2.80;1.40;;;14.70;99.90;;;;;;5138235;27;20168;-63
2022/05/25 02:44:23;;;;;;;2.50;1.50;;;14.60;99.90;;;;;;5138574;27;20554;-63
2022/05/25 02:46:49;;;;;;;2.13;1.37;;;14.60;99.90;;;;;;5138638;27;20161;-63
2022/05/25 02:49:15;;;;;;;2.43;1.80;;;14.50;99.90;;;;;;5146016;27;20190;-63
2022/05/25 02:51:41;;;;;;;1.43;1.27;;;14.50;99.90;;;;;;5158255;27;20173;-63
2022/05/25 02:54:08;;;;;;;1.23;1.00;;;14.40;99.90;;;;;;5141443;27;20173;-64
2022/05/25 02:56:33;;;;;;;2.93;1.53;;;14.60;99.90;;;;;;5137977;27;20158;-63
2022/05/25 02:58:59;;;;;;;2.23;1.30;;;14.60;99.90;;;;;;5138235;27;20244;-64
2022/05/25 03:01:25;;;;;;;1.83;1.30;;;14.70;99.90;;;;;;5138527;27;20181;-62
2022/05/25 03:03:51;;;;;;;1.80;1.47;;;14.60;99.90;;;;;;5137996;27;20276;-63
2022/05/25 03:06:18;;;;;;;1.33;1.23;;;14.60;99.90;;;;;;5137651;27;20606;-65
2022/05/25 03:08:44;;;;;;;1.30;1.20;;;14.50;99.90;;;;;;5137747;27;20154;-62
2022/05/25 03:11:10;;;;;;;1.33;1.20;;;14.50;99.90;;;;;;5123986;27;20189;-63
2022/05/25 03:13:36;;;;;;;2.23;1.37;;;14.40;99.90;;;;;;5116970;28;20178;-63
2022/05/25 03:16:04;;;;;;;1.67;1.40;;;14.40;99.90;;;;;;5117607;28;20166;-62
2022/05/25 03:18:30;;;;;;;1.40;1.30;;;14.60;99.90;;;;;;5117373;28;20170;-63
2022/05/25 03:20:55;;;;;;;1.63;1.40;;;14.70;99.90;;;;;;5117296;28;20499;-62
2022/05/25 03:23:21;;;;;;;2.20;1.50;;;14.60;99.90;;;;;;5117986;27;20205;-64
2022/05/25 03:25:48;;;;;;;1.60;1.50;;;14.60;99.90;;;;;;5137380;27;20226;-64
2022/05/25 03:28:14;;;;;;;2.33;1.40;;;14.70;99.90;;;;;;5137874;27;20670;-62
2022/05/25 03:30:42;;;;;;;2.47;1.40;;;14.60;99.90;;;;;;5137190;27;20158;-62
2022/05/25 03:33:08;;;;;;;2.83;1.67;;;14.50;99.90;;;;;;5130594;27;20185;-64
2022/05/25 03:35:34;;;;;;;2.60;1.53;;;14.60;99.90;;;;;;5116346;28;20178;-61
2022/05/25 03:38:01;;;;;;;1.60;1.47;;;14.70;99.90;;;;;;5111411;27;20561;-63
2022/05/25 03:40:27;;;;;;;1.50;1.27;;;14.80;99.90;;;;;;5116043;28;20531;-62
2022/05/25 03:42:53;;;;;;;1.90;1.30;;;14.90;99.90;;;;;;5116732;28;20300;-63
2022/05/25 03:45:19;;;;;;;1.60;1.37;;;15.00;99.90;;;;;;5122352;28;20169;-63
2022/05/25 03:47:45;;;;;;;1.50;1.30;;;15.00;99.90;;;;;;5127121;28;20171;-66
2022/05/25 03:50:12;;;;;;;3.77;1.67;;;15.10;99.90;;;;;;5126813;28;20586;-65
2022/05/25 03:52:38;;;;;;;4.43;2.00;;;15.10;99.90;;;;;;5123541;28;20159;-65
2022/05/25 03:55:05;;;;;;;3.30;1.70;;;15.10;99.90;;;;;;5122271;28;20197;-63
2022/05/25 03:57:32;;;;;;;2.03;1.70;;;15.20;99.90;;;;;;5123284;28;20162;-62
2022/05/25 03:59:57;;;;;;;5.07;1.77;;;15.20;99.90;;;;;;5125027;28;20154;-63
2022/05/25 04:02:24;;;;;;;1.60;1.30;;;15.20;99.90;;;;;;5124085;28;20227;-64
2022/05/25 04:05:07;;;;;;;2.83;1.40;;;15.10;99.90;;;;;;5122491;28;20182;-62
2022/05/25 04:07:42;;;;;;;1.87;1.53;;;15.00;99.90;;;;;;5121961;28;20243;-64
2022/05/25 04:10:12;;;;;;;1.33;1.20;;;14.80;99.90;;;;;;5123408;28;20589;-63
2022/05/25 04:12:40;;;;;;;4.27;1.80;;;14.60;99.90;;;;;;5123863;28;20188;-63
2022/05/25 04:15:06;;;;;;;3.17;1.47;;;14.70;99.90;;;;;;5119590;28;20170;-63
2022/05/25 04:17:33;;;;;;;2.30;1.57;;;15.00;99.90;;;;;;5116213;28;20165;-62
2022/05/25 04:19:59;;;;;;;1.50;1.33;;;14.90;99.90;;;;;;5115917;28;20158;-64
2022/05/25 04:22:24;;;;;;;2.00;1.80;;;14.60;99.90;;;;;;5115814;28;20233;-62
2022/05/25 04:24:51;;;;;;;1.87;1.50;;;14.70;99.90;;;;;;5116533;28;20177;-62
2022/05/25 04:27:18;;;;;;;1.93;1.60;;;14.60;99.90;;;;;;5118002;28;20155;-64
2022/05/25 04:29:43;;;;;;;4.80;1.60;;;14.70;99.90;;;;;;5122404;28;20154;-64
2022/05/25 04:32:09;;;;;;;1.73;1.60;;;14.90;99.90;;;;;;5122817;28;20214;-64
2022/05/25 04:34:35;;;;;;;2.17;1.83;;;15.10;99.90;;;;;;5124065;28;20159;-62
2022/05/25 04:39:46;;;;;;;3.57;1.80;;;15.20;99.90;;;;;;5122625;28;20599;-63
2022/05/25 04:42:11;;;;;;;1.77;1.43;;;15.30;99.90;;;;;;5115939;28;20217;-64
2022/05/25 04:44:37;;;;;;;4.53;2.40;;;15.40;99.90;;;;;;5115524;28;20159;-64
2022/05/25 04:47:07;;;;;;;4.97;2.00;;;15.40;99.90;;;;;;5115076;28;20180;-62
2022/05/25 04:49:33;;;;;;;3.70;2.07;;;15.30;99.90;;;;;;5115748;28;20158;-63
2022/05/25 04:51:58;;;;;;;2.87;1.90;;;15.40;99.90;;;;;;5117393;28;20158;-64
2022/05/25 04:54:24;;;;;;;2.20;1.90;;;15.40;99.90;;;;;;5117267;28;20247;-64
2022/05/25 04:59:34;;;;;;;2.47;1.90;;;15.60;99.90;;;;;;5118784;28;20277;-62
2022/05/25 05:01:59;;;;;;;1.98;1.58;;;15.70;99.90;;;;;;5119471;28;20321;-63
2022/05/25 05:04:26;;;;;;;4.73;1.80;;;15.80;99.90;;;;;;5120022;28;20621;-63
2022/05/25 05:06:52;;;;;;;2.50;1.73;;;15.90;99.90;;;;;;5120053;28;20275;-63
2022/05/25 05:09:18;;;;;;;2.83;2.00;;;15.70;99.90;;;;;;5120846;28;20224;-63
2022/05/25 05:11:45;;;;;;;2.30;1.93;;;15.80;99.90;;;;;;5117606;28;20594;-63
2022/05/25 05:14:13;;;;;;;3.30;1.70;;;16.00;99.90;;;;;;5120263;28;20158;-64
2022/05/25 05:16:38;;;;;;;1.90;1.40;;;15.90;99.90;;;;;;5116548;28;20155;-64
2022/05/25 05:19:04;;;;;;;2.57;2.00;;;16.10;99.90;;;;;;5114862;28;20207;-63
2022/05/25 05:21:30;;;;;;;3.40;2.57;;;16.30;99.90;;;;;;5114663;28;20166;-64
2022/05/25 05:23:55;;;;;;;5.03;1.30;;;16.40;99.90;;;;;;5114675;28;20640;-64
2022/05/25 05:26:21;;;;;;;2.97;1.93;;;16.60;99.90;;;;;;5114857;28;20177;-64
2022/05/25 05:28:49;;;;;;;9.47;2.13;;;16.70;99.90;;;;;;5114741;28;20162;-63
2022/05/25 05:31:15;;;;;;;5.68;1.20;;;16.60;99.90;;;;;;5115078;28;20165;-63
2022/05/25 05:33:41;;;;;;;1.30;1.20;;;16.60;99.90;;;;;;5132023;27;20178;-63
2022/05/25 05:36:15;;;;;;;2.20;1.33;;;16.60;99.90;;;;;;5116170;28;20178;-63
2022/05/25 05:38:49;;;;;;;1.95;1.20;;;16.70;99.90;;;;;;5123738;28;20604;-64
2022/05/25 05:41:15;;;;;;;1.88;1.23;;;16.70;99.90;;;;;;5127206;28;20157;-64
2022/05/25 05:43:41;;;;;;;2.92;1.30;;;16.80;99.90;;;;;;5114476;28;20226;-63
2022/05/25 05:46:08;;;;;;;2.15;1.55;;;16.80;99.90;;;;;;5113897;28;20162;-64
2022/05/25 05:48:36;;;;;;;2.13;1.53;;;16.80;99.90;;;;;;5113906;28;20586;-64
2022/05/25 05:51:04;;;;;;;1.30;1.20;;;16.70;99.90;;;;;;5114410;28;20253;-64
2022/05/25 05:53:30;;;;;;;2.50;1.70;;;16.70;99.90;;;;;;5114031;28;20477;-64
2022/05/25 05:55:57;;;;;;;1.27;1.17;;;16.80;99.90;;;;;;5114075;28;20235;-63
2022/05/25 05:58:23;;;;;;;2.70;1.53;;;16.80;99.90;;;;;;5114141;28;20185;-64
2022/05/25 06:00:48;;;;;;;2.67;1.48;;;16.80;99.90;;;;;;5114025;28;20181;-64
2022/05/25 06:03:15;;;;;;;5.03;1.63;;;16.90;99.90;;;;;;5114057;28;20198;-63
2022/05/25 06:05:41;;;;;;;4.15;1.75;;;16.90;99.90;;;;;;5113517;28;20178;-64
2022/05/25 06:08:26;;;;;;;6.07;1.60;;;16.90;99.90;;;;;;5113200;28;20267;-63
2022/05/25 06:10:52;;;;;;;4.43;2.00;;;16.70;99.90;;;;;;5113888;28;20192;-63
2022/05/25 06:13:18;;;;;;;2.20;1.37;;;16.60;99.90;;;;;;5113524;28;20215;-63
2022/05/25 06:21:21;;;;;;;2.25;1.52;;;16.70;99.90;;;;;;5113466;28;20246;-64
2022/05/25 06:23:47;;;;;;;5.22;1.83;;;16.70;99.90;;;;;;5113646;28;20614;-63
2022/05/25 06:26:14;;;;;;;2.47;1.33;;;16.70;99.90;;;;;;5113454;28;20181;-64
2022/05/25 06:28:40;;;;;;;6.10;1.55;;;16.60;99.90;;;;;;5113561;28;20212;-63
2022/05/25 06:31:06;;;;;;;4.93;1.40;;;16.60;99.90;;;;;;5113696;28;20194;-64
2022/05/25 06:33:32;;;;;;;3.20;1.42;;;16.60;99.90;;;;;;5113456;28;20591;-63
2022/05/25 06:36:14;;;;;;;3.15;1.77;;;16.70;99.90;;;;;;5113828;28;20170;-64
2022/05/25 06:38:40;;;;;;;3.05;1.50;;;16.70;99.90;;;;;;5113880;28;20511;-63
2022/05/25 06:41:05;;;;;;;1.77;1.40;;;16.70;99.90;;;;;;5113628;28;20154;-64
2022/05/25 06:43:31;;;;;;;2.20;1.40;;;16.70;99.90;;;;;;5114649;28;20280;-63
2022/05/25 06:45:57;;;;;;;4.72;1.40;;;16.70;99.90;;;;;;5114408;28;20163;-64
2022/05/25 06:48:23;;;;;;;4.97;1.10;;;16.60;99.90;;;;;;5113165;28;20174;-71
2022/05/25 06:50:48;;;;;;;1.40;1.27;;;16.90;99.90;;;;;;5113205;28;20635;-64
2022/05/25 06:53:14;;;;;;;3.28;1.58;;;17.70;99.90;;;;;;5113766;28;20238;-64
2022/05/25 06:55:39;;;;;;;2.75;1.30;;;17.20;99.90;;;;;;5113525;28;20170;-64
2022/05/25 06:58:05;;;;;;;1.40;1.17;;;17.00;99.90;;;;;;5113515;28;20170;-64
2022/05/25 07:00:30;;;;;;;3.10;1.25;;;16.90;99.90;;;;;;5113997;28;20224;-64
2022/05/25 07:02:56;;;;;;;1.50;1.25;;;16.90;99.90;;;;;;5113639;28;20212;-62
2022/05/25 07:05:22;;;;;;;2.58;1.50;;;16.90;99.90;;;;;;5113135;28;20178;-65
2022/05/25 07:07:48;;;;;;;4.38;1.75;;;16.90;99.90;;;;;;5113748;28;20309;-64
2022/05/25 07:10:13;;;;;;;2.88;1.50;;;16.90;99.90;;;;;;5112701;28;20614;-64
2022/05/25 07:12:39;;;;;;;1.33;1.20;;;16.90;99.90;;;;;;5113022;28;20274;-63
2022/05/25 07:15:05;;;;;;;1.55;1.45;;;16.90;99.90;;;;;;5112864;28;20163;-63
2022/05/25 07:17:33;;;;;;;1.13;1.02;;;17.00;99.90;;;;;;5116489;28;20169;-64
2022/05/25 07:19:58;;;;;;;4.18;1.20;;;16.90;99.90;;;;;;5117158;28;20284;-64
2022/05/25 07:22:24;;;;;;;1.60;1.35;;;17.00;99.90;;;;;;5116930;28;20284;-64
2022/05/25 07:24:50;;;;;;;1.60;1.13;;;16.80;99.90;;;;;;5117378;28;20166;-63
2022/05/25 07:27:15;;;;;;;2.10;1.45;;;16.80;99.90;;;;;;5116669;28;20170;-64
2022/05/25 07:29:41;;;;;;;1.40;1.15;;;16.70;99.90;;;;;;5117247;28;20170;-64
2022/05/25 07:32:11;;;;;;;1.65;1.20;;;16.70;99.90;;;;;;5117243;28;20173;-64
2022/05/25 07:34:42;;;;;;;2.20;1.48;;;16.90;99.90;;;;;;5116698;28;20154;-64
2022/05/25 07:37:17;;;;;;;2.55;1.25;;;16.90;99.90;;;;;;5117114;28;20198;-64
2022/05/25 07:39:48;;;;;;;1.30;1.20;;;16.80;99.90;;;;;;5116308;28;20155;-65
2022/05/25 07:42:17;;;;;;;1.30;1.20;;;16.70;99.90;;;;;;5116553;28;20540;-64
2022/05/25 07:44:54;;;;;;;1.63;1.03;;;16.70;99.90;;;;;;5116316;28;20170;-64
2022/05/25 07:47:20;;;;;;;1.70;1.20;;;16.70;99.90;;;;;;5131698;27;20192;-64
2022/05/25 07:49:45;;;;;;;1.83;1.30;;;16.70;99.90;;;;;;5116453;28;20241;-63
2022/05/25 07:52:11;;;;;;;1.77;1.67;;;16.60;99.90;;;;;;5116686;28;20173;-64
2022/05/25 07:54:40;;;;;;;2.40;1.67;;;16.60;99.90;;;;;;5116458;28;20184;-64
2022/05/25 07:57:06;;;;;;;4.00;1.23;;;16.60;99.90;;;;;;5116071;28;20568;-63
2022/05/25 07:59:32;;;;;;;1.60;1.30;;;16.50;99.90;;;;;;5116463;28;20245;-63
2022/05/25 08:07:36;;;;;;;2.67;1.50;;;16.40;99.90;;;;;;5116399;28;20236;-62
2022/05/25 08:10:15;;;;;;;2.23;1.30;;;16.50;99.90;;;;;;5116151;28;20241;-63
2022/05/25 08:12:42;;;;;;;4.78;1.50;;;16.60;99.90;;;;;;5116354;28;20244;-62
2022/05/25 08:15:09;;;;;;;2.00;1.40;;;16.60;99.90;;;;;;5116181;28;20207;-63
2022/05/25 08:17:35;;;;;;;1.60;1.50;;;16.70;99.90;;;;;;5115412;28;20226;-63
2022/05/25 08:20:01;;;;;;;1.60;1.40;;;16.90;99.90;;;;;;5115823;28;20165;-62
2022/05/25 08:22:27;;;;;;;3.45;1.70;;;16.80;99.90;;;;;;5115320;28;20209;-65
2022/05/25 08:24:52;;;;;;;3.95;1.70;;;16.90;99.90;;;;;;5115701;28;20165;-63
2022/05/25 08:27:18;;;;;;;4.30;1.58;;;16.90;99.90;;;;;;5115762;28;20239;-65
2022/05/25 08:29:44;;;;;;;2.10;1.60;;;16.90;99.90;;;;;;5116314;28;20166;-64
2022/05/25 08:32:10;;;;;;;1.83;1.20;;;16.90;99.90;;;;;;5133650;27;20181;-64
2022/05/25 08:34:36;;;;;;;1.30;1.20;;;16.90;99.90;;;;;;5125163;28;20501;-63
2022/05/25 08:37:02;;;;;;;1.93;1.40;;;17.00;99.90;;;;;;5119568;28;20670;-65
2022/05/25 08:39:29;;;;;;;3.67;2.13;;;17.10;99.90;;;;;;5115506;28;20161;-65
2022/05/25 08:41:57;;;;;;;2.13;1.50;;;17.20;99.90;;;;;;5115206;28;20154;-64
2022/05/25 08:44:24;;;;;;;1.67;1.17;;;17.20;99.90;;;;;;5115067;28;20227;-65
2022/05/25 08:46:57;;;;;;;2.10;1.40;;;17.20;99.90;;;;;;5115069;28;20192;-63
2022/05/25 08:49:25;;;;;;;3.92;2.05;;;17.20;99.90;;;;;;5115089;28;20170;-63
2022/05/25 08:51:57;;;;;;;1.52;1.25;;;17.20;99.90;;;;;;5114817;28;20263;-64
2022/05/25 08:54:25;;;;;;;2.40;1.40;;;17.20;99.90;;;;;;5114970;28;20154;-63
2022/05/25 08:57:02;;;;;;;1.33;1.23;;;17.30;99.90;;;;;;5115000;28;20162;-63
2022/05/25 08:59:41;;;;;;;3.80;1.60;;;17.30;99.90;;;;;;5114318;28;20235;-66
2022/05/25 09:02:22;;;;;;;2.22;1.48;;;17.10;99.90;;;;;;5115207;28;20231;-64
2022/05/25 09:04:51;;;;;;;8.85;1.73;;;17.20;99.90;;;;;;5114796;28;20169;-64
2022/05/25 09:07:51;;;;;;;1.70;1.50;;;17.30;99.90;;;;;;5115407;28;20245;-63
2022/05/25 09:10:18;;;;;;;1.38;1.25;;;17.40;99.90;;;;;;5091213;28;20191;-64
2022/05/25 09:12:52;;;;;;;1.38;1.27;;;17.40;99.90;;;;;;5115031;28;20205;-66
2022/05/25 09:15:23;;;;;;;2.00;1.48;;;17.30;99.90;;;;;;5114592;28;20154;-63
2022/05/25 09:18:09;;;;;;;4.65;1.73;;;17.40;99.90;;;;;;5114772;28;20582;-63
2022/05/25 09:20:44;;;;;;;1.67;1.50;;;17.40;99.90;;;;;;5114229;28;20146;-63
2022/05/25 09:23:13;;;;;;;4.05;1.30;;;17.60;99.90;;;;;;5114640;28;20190;-65
2022/05/25 09:25:39;;;;;;;3.20;1.35;;;17.60;99.90;;;;;;5114135;28;20192;-64
2022/05/25 09:28:20;;;;;;;5.13;1.33;;;17.70;99.90;;;;;;5114498;28;20569;-64
2022/05/25 09:30:52;;;;;;;2.05;1.27;;;17.70;99.90;;;;;;5114388;28;20150;-64
2022/05/25 09:33:24;;;;;;;2.80;1.40;;;18.00;99.90;;;;;;5114235;28;20201;-64
2022/05/25 09:35:58;;;;;;;1.10;1.00;;;17.90;99.90;;;;;;5115229;28;20473;-64
2022/05/25 09:39:04;;;;;;;1.38;1.10;;;18.00;99.90;;;;;;5117929;28;20170;-64
2022/05/25 09:41:33;;;;;;;1.65;1.00;;;18.00;99.90;;;;;;5120144;28;20635;-67
2022/05/25 09:44:03;;;;;;;2.60;1.17;;;18.00;99.90;;;;;;5124609;28;20193;-66
2022/05/25 09:46:35;;;;;;;1.58;1.30;;;17.90;99.90;;;;;;5115687;28;20187;-63
2022/05/25 09:49:05;;;;;;;1.67;1.13;;;18.10;99.90;;;;;;5114483;28;20209;-63
2022/05/25 09:51:36;;;;;;;4.75;1.55;;;18.10;99.90;;;;;;5096243;28;20170;-65
2022/05/25 09:54:10;;;;;;;1.35;1.10;;;18.20;99.90;;;;;;5114488;28;20220;-64
2022/05/25 09:56:39;;;;;;;2.75;1.17;;;18.40;99.90;;;;;;5114115;28;20574;-63
2022/05/25 09:59:10;;;;;;;5.82;1.27;;;18.70;99.90;;;;;;5114360;28;20256;-65
2022/05/25 10:01:45;;;;;;;2.80;1.42;;;18.80;99.90;;;;;;5114552;28;20226;-64
2022/05/25 10:04:17;;;;;;;2.83;1.48;;;18.80;99.90;;;;;;5114060;28;20212;-64
2022/05/25 10:06:51;;;;;;;3.78;1.48;;;18.90;99.90;;;;;;5113711;28;20221;-65
2022/05/25 10:09:29;;;;;;;1.52;1.40;;;18.90;99.90;;;;;;5113465;28;20161;-63
2022/05/25 10:11:59;;;;;;;2.80;1.35;;;18.60;99.90;;;;;;5114037;28;20158;-65
2022/05/25 10:14:31;;;;;;;1.33;1.20;;;18.70;99.90;;;;;;5113809;28;20528;-64
2022/05/25 10:17:13;;;;;;;3.00;1.20;;;18.90;99.90;;;;;;5114180;28;20164;-65
2022/05/25 10:19:51;;;;;;;1.27;1.00;;;19.40;99.90;;;;;;5114113;28;20158;-64
2022/05/25 10:22:46;;;;;;;1.75;1.20;;;19.40;99.90;;;;;;5113986;28;20162;-63
2022/05/25 10:25:52;;;;;;;3.13;0.90;;;19.10;99.90;;;;;;5114044;28;20167;-64
2022/05/25 10:28:32;;;;;;;3.10;1.20;;;19.20;98.70;;;;;;5097281;28;20193;-65
2022/05/25 10:37:08;;;;;;;2.92;1.00;;;20.10;97.90;;;;;;5114075;28;20509;-65
2022/05/25 10:39:45;;;;;;;1.10;1.00;;;20.20;97.60;;;;;;5107664;28;20201;-64
2022/05/25 10:42:19;;;;;;;1.02;1.02;;;19.70;96.40;;;;;;5113558;28;20157;-64
2022/05/25 10:45:08;;;;;;;1.15;1.05;;;19.00;97.80;;;;;;5114667;28;20154;-65
2022/05/25 10:48:07;;;;;;;4.72;1.15;;;19.40;99.20;;;;;;5114577;28;20594;-64
2022/05/25 10:50:43;;;;;;;2.05;1.02;;;19.40;98.70;;;;;;5115639;28;20169;-64
2022/05/25 10:53:35;;;;;;;3.60;1.20;;;19.30;99.00;;;;;;5118711;28;20210;-66
2022/05/25 10:56:24;;;;;;;1.20;1.10;;;19.40;99.90;;;;;;5117867;28;20248;-65
2022/05/25 10:59:22;;;;;;;1.08;0.98;;;19.30;98.30;;;;;;5101414;28;20166;-64
2022/05/25 11:02:18;;;;;;;0.90;0.88;;;19.90;97.40;;;;;;5080000;28;20317;-66
2022/05/25 11:05:09;;;;;;;1.42;1.20;;;20.60;96.10;;;;;;5118079;28;20178;-64
2022/05/25 11:07:40;;;;;;;0.90;0.90;;;20.70;95.70;;;;;;5118419;28;20221;-65
2022/05/25 11:10:37;;;;;;;4.13;2.90;;;20.90;95.20;;;;;;5117797;28;20154;-65
2022/05/25 11:13:23;;;;;;;2.55;1.60;;;21.10;94.60;;;;;;5119253;28;20162;-62
2022/05/25 11:16:07;;;;;;;2.63;1.40;;;21.50;93.50;;;;;;5120580;28;20150;-63
2022/05/25 11:18:51;;;;;;;1.42;0.95;;;21.60;91.60;;;;;;5119661;28;20253;-63
2022/05/25 11:21:53;;;;;;;1.00;0.90;;;21.40;90.50;;;;;;5121687;28;20167;-62
2022/05/25 11:24:45;;;;;;;3.53;1.30;;;21.10;90.10;;;;;;5121606;28;20692;-64
2022/05/25 11:27:49;;;;;;;1.90;1.10;;;21.30;90.70;;;;;;5121620;28;20169;-64
2022/05/25 11:30:37;;;;;;;2.03;0.98;;;21.20;90.50;;;;;;5131218;28;20585;-63
2022/05/25 11:33:16;;;;;;;2.03;1.00;;;20.60;92.70;;;;;;5125479;28;20178;-63
2022/05/25 11:36:08;;;;;;;5.10;1.20;;;21.10;92.50;;;;;;5125829;28;20158;-63
2022/05/25 11:39:04;;;;;;;1.08;0.98;;;21.50;92.90;;;;;;5116261;28;20232;-63
2022/05/25 11:41:53;;;;;;;1.17;0.95;;;21.50;90.00;;;;;;5116976;28;20162;-62
2022/05/25 11:44:30;;;;;;;1.90;1.00;;;22.30;88.70;;;;;;5117349;28;20255;-63
2022/05/25 11:47:06;;;;;;;8.52;3.63;;;22.50;84.30;;;;;;5122324;28;20196;-65
2022/05/25 11:49:38;;;;;;;1.10;1.00;;;22.40;83.90;;;;;;5125658;28;20181;-64
2022/05/25 11:52:25;;;;;;;1.23;1.10;;;22.70;82.30;;;;;;5127152;28;20166;-64
2022/05/25 11:55:18;;;;;;;1.50;1.20;;;22.50;80.50;;;;;;5124465;28;20162;-64
2022/05/25 11:58:02;;;;;;;1.13;1.02;;;22.30;81.40;;;;;;5116598;28;20219;-63
2022/05/25 12:00:47;;;;;;;1.23;1.05;;;22.30;82.00;;;;;;5115955;28;20154;-63
2022/05/25 12:03:56;;;;;;;1.05;1.00;;;23.00;81.10;;;;;;5116499;28;20231;-64
2022/05/25 12:06:52;;;;;;;2.95;1.10;;;22.40;80.20;;;;;;5115861;28;20312;-63
2022/05/25 12:09:42;;;;;;;1.48;1.20;;;22.00;83.30;;;;;;5115832;28;20161;-63
2022/05/25 12:12:38;;;;;;;2.35;1.10;;;22.30;82.00;;;;;;5116221;28;20162;-64
2022/05/25 12:15:10;;;;;;;1.50;1.27;;;22.30;80.00;;;;;;5116212;28;20166;-63
2022/05/25 12:18:09;;;;;;;2.83;1.30;;;22.40;80.20;;;;;;5116030;28;20165;-64
2022/05/25 12:20:38;;;;;;;2.08;1.20;;;22.30;81.90;;;;;;5110036;28;20204;-64
2022/05/25 12:23:12;;;;;;;2.70;1.25;;;22.10;75.80;;;;;;5115322;28;20669;-63
2022/05/25 12:25:42;;;;;;;0.73;0.73;;;22.10;78.00;;;;;;5115502;28;20155;-64
2022/05/25 12:28:09;;;;;;;1.48;1.20;;;22.40;75.70;;;;;;5115352;28;20193;-64
2022/05/25 12:30:43;;;;;;;1.70;1.20;;;22.70;71.70;;;;;;5115563;28;20239;-63
2022/05/25 12:33:11;;;;;;;2.58;1.33;;;22.70;70.90;;;;;;5115661;28;20469;-63
2022/05/25 12:35:39;;;;;;;2.20;1.20;;;22.50;72.50;;;;;;5116528;28;20169;-66
2022/05/25 12:38:07;;;;;;;1.52;1.20;;;22.70;73.00;;;;;;5114918;28;20176;-63
2022/05/25 12:40:43;;;;;;;2.20;1.23;;;22.80;69.60;;;;;;5115637;28;20212;-62
2022/05/25 12:43:37;;;;;;;1.20;1.10;;;23.00;67.70;;;;;;5115814;28;20233;-62
2022/05/25 12:48:56;;;;;;;1.25;1.00;;;23.30;68.10;;;;;;5115660;28;20605;-63
2022/05/25 12:51:33;;;;;;;1.73;1.15;;;23.70;65.80;;;;;;5115194;28;20580;-64
2022/05/25 12:54:01;;;;;;;1.88;1.10;;;23.40;64.70;;;;;;5114806;28;20170;-62
2022/05/25 12:56:27;;;;;;;2.53;1.08;;;22.90;67.10;;;;;;5115111;28;20249;-64
2022/05/25 12:58:58;;;;;;;1.63;1.10;;;23.10;66.50;;;;;;5114891;28;20237;-63
2022/05/25 13:01:27;;;;;;;1.10;1.00;;;23.50;65.60;;;;;;5114708;28;20170;-62
2022/05/25 13:03:56;;;;;;;1.45;0.98;;;23.70;63.10;;;;;;5115046;28;20194;-63
2022/05/25 13:06:27;;;;;;;2.33;1.15;;;23.60;62.20;;;;;;5115755;28;20253;-63
2022/05/25 13:08:55;;;;;;;1.15;1.00;;;23.40;60.30;;;;;;5120042;28;20170;-63
2022/05/25 13:11:39;;;;;;;1.30;1.17;;;23.50;60.30;;;;;;5123955;28;20504;-65
2022/05/25 13:14:16;;;;;;;2.72;1.05;;;23.70;60.30;;;;;;5124537;28;20154;-64
2022/05/25 13:16:48;;;;;;;3.70;1.20;;;23.60;60.40;;;;;;5125309;28;20165;-63
2022/05/25 13:19:28;;;;;;;1.38;1.00;;;23.50;60.90;;;;;;5138189;27;20181;-63
2022/05/25 13:22:02;;;;;;;1.65;1.30;;;23.70;60.80;;;;;;5114319;28;20270;-63
2022/05/25 13:24:59;;;;;;;1.88;1.10;;;23.80;59.50;;;;;;5114809;28;20197;-65
2022/05/25 13:27:39;;;;;;;1.83;1.00;;;23.80;58.30;;;;;;5114338;28;20169;-63
2022/05/25 13:30:38;;;;;;;1.17;1.08;;;22.90;59.00;;;;;;5114990;28;20165;-62
2022/05/25 13:33:24;;;;;;;1.33;0.90;;;23.10;60.30;;;;;;5114695;28;20231;-64
2022/05/25 13:35:56;;;;;;;1.52;1.20;;;23.40;59.20;;;;;;5114818;28;20223;-63
2022/05/25 13:38:43;;;;;;;2.55;1.48;;;23.20;58.40;;;;;;5116910;28;20590;-64
2022/05/25 13:41:22;;;;;;;0.95;0.90;;;23.80;58.90;;;;;;5117080;28;20166;-63
2022/05/25 13:43:50;;;;;;;1.75;1.20;;;22.90;58.20;;;;;;5116602;28;20292;-64
2022/05/25 13:46:42;;;;;;;1.10;0.90;;;23.00;60.70;;;;;;5115922;28;20245;-63
2022/05/25 13:49:21;;;;;;;1.10;1.00;;;23.00;59.90;;;;;;5116572;28;20161;-63